Time;durP1;ratioP1;P1;durP2;ratioP2;P2;SDS_P1;SDS_P2;PMS_P1;PMS_P2;Temp;Humidity;BMP_temperature;BMP_pressure;BME280_temperature;BME280_humidity;BME280_pressure;Samples;Min_cycle;Max_cycle;Signal;HPM_P1;HPM_P2
2022/08/26 00:01:15;;;;;;;7.15;4.25;;;;;;;16.91;100.00;96394.88;5094882;28;20059;-65
2022/08/26 00:03:41;;;;;;;9.98;4.13;;;;;;;16.95;100.00;96401.13;5093847;28;20027;-66
2022/08/26 00:06:07;;;;;;;6.05;4.20;;;;;;;16.95;100.00;96401.91;5082156;28;20028;-66
2022/08/26 00:08:33;;;;;;;6.28;4.03;;;;;;;16.91;100.00;96394.88;5074247;28;20029;-65
2022/08/26 00:10:58;;;;;;;7.45;4.78;;;;;;;16.54;100.00;96394.50;5072852;28;20030;-66
2022/08/26 00:13:24;;;;;;;8.30;4.40;;;;;;;16.27;100.00;96383.34;5071813;28;20092;-66
2022/08/26 00:15:50;;;;;;;8.13;4.75;;;;;;;16.20;100.00;96383.44;5085856;28;20058;-67
2022/08/26 00:18:17;;;;;;;7.35;4.68;;;;;;;16.19;100.00;96388.19;5088276;28;20119;-68
2022/08/26 00:20:42;;;;;;;11.93;4.50;;;;;;;16.20;100.00;96386.97;5081351;28;20056;-67
2022/08/26 00:23:08;;;;;;;8.10;4.25;;;;;;;16.30;100.00;96384.53;5094176;28;20098;-67
2022/08/26 00:25:34;;;;;;;6.40;4.47;;;;;;;16.35;100.00;96387.63;5093807;28;20035;-70
2022/08/26 00:28:00;;;;;;;5.63;3.97;;;;;;;16.41;100.00;96390.72;5072971;28;20064;-67
2022/08/26 00:30:28;;;;;;;8.50;4.75;;;;;;;16.30;100.00;96388.06;5073857;28;20109;-66
2022/08/26 00:32:54;;;;;;;5.90;4.70;;;;;;;16.12;100.00;96385.50;5078219;28;20516;-66
2022/08/26 00:35:21;;;;;;;11.63;5.18;;;;;;;16.03;100.00;96387.97;5102714;28;20126;-69
2022/08/26 00:37:46;;;;;;;6.40;4.50;;;;;;;16.10;100.00;96393.41;5093533;28;20103;-66
2022/08/26 00:40:17;;;;;;;6.55;4.55;;;;;;;16.07;100.00;96394.22;5093930;28;20458;-66
2022/08/26 00:42:43;;;;;;;10.82;5.35;;;;;;;15.95;100.00;96391.97;5094020;28;20035;-66
2022/08/26 00:45:09;;;;;;;8.52;4.97;;;;;;;15.89;100.00;96388.88;5106669;28;20028;-66
2022/08/26 00:47:42;;;;;;;9.63;4.70;;;;;;;15.91;100.00;96392.00;5074127;28;20478;-65
2022/08/26 00:50:12;;;;;;;6.53;4.68;;;;;;;16.00;100.00;96395.06;5085431;28;20023;-65
2022/08/26 00:52:39;;;;;;;5.80;4.32;;;;;;;16.02;100.00;96384.41;5093680;28;20055;-66
2022/08/26 00:55:39;;;;;;;6.43;4.95;;;;;;;16.05;100.00;96386.34;5100698;28;20035;-66
2022/08/26 00:58:07;;;;;;;7.88;4.65;;;;;;;16.05;100.00;96385.56;5098964;28;20028;-67
2022/08/26 01:00:32;;;;;;;10.93;5.20;;;;;;;16.12;100.00;96385.50;5077833;28;20103;-67
2022/08/26 01:03:00;;;;;;;8.02;4.50;;;;;;;16.10;100.00;96385.13;5076911;28;20116;-67
2022/08/26 01:05:27;;;;;;;6.88;4.88;;;;;;;16.05;100.00;96386.34;5085637;28;20032;-67
2022/08/26 01:07:52;;;;;;;6.43;4.25;;;;;;;16.02;100.00;96392.69;5093985;28;20029;-66
2022/08/26 01:10:22;;;;;;;8.07;4.57;;;;;;;15.94;100.00;96398.72;5109481;28;20056;-68
2022/08/26 01:12:51;;;;;;;;;;;;;;;15.66;100.00;96392.22;5077373;28;20397;-69
2022/08/26 01:15:21;;;;;;;7.63;4.60;;;;;;;15.58;100.00;96390.72;5084464;28;19961;-68
2022/08/26 01:17:47;;;;;;;9.77;5.72;;;;;;;15.53;100.00;96391.16;5093090;28;20392;-66
2022/08/26 01:20:47;;;;;;;8.68;4.90;;;;;;;15.51;100.00;96399.06;5093027;28;20035;-66
2022/08/26 01:23:13;;;;;;;7.20;4.90;;;;;;;15.57;100.00;96394.66;5080687;28;20561;-66
2022/08/26 01:25:47;;;;;;;13.20;4.80;;;;;;;15.72;100.00;96398.88;5090050;28;20408;-66
2022/08/26 01:28:30;;;;;;;6.65;5.15;;;;;;;15.90;100.00;96397.94;5073311;28;20079;-66
2022/08/26 01:30:57;;;;;;;8.57;5.45;;;;;;;15.63;100.00;96396.56;5072855;28;20078;-65
2022/08/26 01:33:31;;;;;;;6.55;5.15;;;;;;;15.70;100.00;96392.97;5072554;28;20025;-65
2022/08/26 01:35:57;;;;;;;5.97;4.65;;;;;;;15.77;100.00;96398.47;5072077;28;20032;-65
2022/08/26 01:38:22;;;;;;;6.70;4.70;;;;;;;15.85;100.00;96388.91;5072672;28;20039;-65
2022/08/26 01:40:48;;;;;;;9.82;4.80;;;;;;;15.95;100.00;96392.75;5078310;28;20027;-65
2022/08/26 01:43:18;;;;;;;8.38;5.43;;;;;;;15.96;100.00;96388.03;5085081;28;20043;-65
2022/08/26 01:45:46;;;;;;;8.55;5.68;;;;;;;15.95;100.00;96383.69;5092076;28;20035;-65
2022/08/26 01:48:18;;;;;;;9.00;5.40;;;;;;;15.87;100.00;96399.56;5079547;28;20048;-66
2022/08/26 01:50:44;;;;;;;6.88;5.75;;;;;;;15.80;100.00;96402.38;5088675;28;20024;-66
2022/08/26 01:53:13;;;;;;;7.05;5.50;;;;;;;15.77;100.00;96395.72;5092819;28;20405;-67
2022/08/26 01:55:43;;;;;;;8.75;5.07;;;;;;;15.74;100.00;96398.47;5083919;28;20024;-65
2022/08/26 01:58:16;;;;;;;8.20;4.88;;;;;;;15.73;100.00;96394.13;5072139;28;20385;-65
2022/08/26 02:00:43;;;;;;;6.07;5.03;;;;;;;15.58;100.00;96396.22;5072057;28;20028;-65
2022/08/26 02:03:20;;;;;;;6.85;4.60;;;;;;;15.46;100.00;96411.28;5071789;28;20029;-65
2022/08/26 02:05:52;;;;;;;10.15;4.90;;;;;;;15.29;100.00;96410.25;5077802;28;20114;-67
2022/08/26 02:08:23;;;;;;;7.60;4.57;;;;;;;15.29;100.00;96411.03;5092267;28;20024;-66
2022/08/26 02:10:48;;;;;;;7.55;4.88;;;;;;;15.55;100.00;96406.09;5092268;28;20097;-65
2022/08/26 02:13:13;;;;;;;7.57;5.18;;;;;;;15.16;100.00;96409.13;5090827;28;20492;-69
2022/08/26 02:15:42;;;;;;;7.97;5.28;;;;;;;15.08;100.00;96408.41;5091684;28;20077;-68
2022/08/26 02:18:09;;;;;;;8.32;5.80;;;;;;;15.21;100.00;96403.19;5088922;28;20043;-68
2022/08/26 02:20:35;;;;;;;8.65;5.90;;;;;;;15.41;100.00;96397.94;5087529;28;20085;-67
2022/08/26 02:23:01;;;;;;;9.82;5.30;;;;;;;15.52;100.00;96403.38;5092048;28;20055;-68
2022/08/26 02:25:43;;;;;;;8.93;5.55;;;;;;;15.49;100.00;96400.22;5081168;28;20050;-67
2022/08/26 02:28:11;;;;;;;7.70;5.20;;;;;;;15.51;100.00;96401.81;5075265;28;20512;-67
2022/08/26 02:30:39;;;;;;;12.48;5.40;;;;;;;15.56;100.00;96402.16;5074700;28;20403;-67
2022/08/26 02:33:04;;;;;;;9.75;5.65;;;;;;;15.56;100.00;96399.41;5078956;28;20039;-68
2022/08/26 02:35:31;;;;;;;7.60;4.60;;;;;;;15.59;100.00;96406.06;5070994;28;20115;-66
2022/08/26 02:37:57;;;;;;;6.55;5.00;;;;;;;15.44;100.00;96406.19;5071291;28;20036;-67
2022/08/26 02:40:29;;;;;;;7.13;4.80;;;;;;;15.28;100.00;96403.91;5071223;28;20400;-67
2022/08/26 02:42:55;;;;;;;7.50;5.15;;;;;;;15.29;100.00;96404.72;5086681;28;20041;-68
2022/08/26 02:45:21;;;;;;;10.63;5.20;;;;;;;15.12;100.00;96408.38;5075530;28;20028;-67
2022/08/26 02:47:46;;;;;;;6.15;4.85;;;;;;;15.00;100.00;96409.63;5088242;28;20649;-67
2022/08/26 02:50:12;;;;;;;7.68;5.35;;;;;;;14.99;100.00;96403.31;5094255;28;20028;-67
2022/08/26 02:52:37;;;;;;;10.45;5.53;;;;;;;14.97;100.00;96397.44;5087324;28;20048;-67
2022/08/26 02:55:04;;;;;;;8.93;5.35;;;;;;;14.83;100.00;96400.25;5091329;28;20034;-68
2022/08/26 02:57:29;;;;;;;12.68;5.32;;;;;;;14.91;100.00;96401.81;5084166;28;20107;-67
2022/08/26 02:59:55;;;;;;;9.70;5.35;;;;;;;14.76;100.00;96398.31;5079490;28;20025;-68
2022/08/26 03:02:20;;;;;;;8.40;5.38;;;;;;;14.74;100.00;96408.19;5100829;28;20157;-67
2022/08/26 03:04:46;;;;;;;5.85;5.05;;;;;;;14.78;100.00;96406.19;5099481;28;20520;-67
2022/08/26 03:07:11;;;;;;;9.38;6.03;;;;;;;14.62;100.00;96407.47;5091798;28;20107;-68
2022/08/26 03:09:37;;;;;;;7.80;5.50;;;;;;;14.55;100.00;96412.97;5077618;28;20029;-66
2022/08/26 03:12:03;;;;;;;8.63;6.35;;;;;;;14.66;100.00;96405.47;5081814;28;21363;-66
2022/08/26 03:14:28;;;;;;;8.70;5.35;;;;;;;14.78;100.00;96404.22;5091592;28;20035;-66
2022/08/26 03:16:54;;;;;;;7.47;5.80;;;;;;;14.77;100.00;96412.91;5091414;28;20234;-66
2022/08/26 03:19:22;;;;;;;13.90;5.80;;;;;;;14.75;100.00;96402.28;5091517;28;20042;-68
2022/08/26 03:21:47;;;;;;;8.70;5.40;;;;;;;14.79;100.00;96405.78;5091264;28;20035;-66
2022/08/26 03:24:14;;;;;;;8.93;5.93;;;;;;;14.93;100.00;96407.72;5099866;28;20032;-66
2022/08/26 03:26:39;;;;;;;10.10;6.03;;;;;;;15.02;100.00;96396.22;5086945;28;20039;-66
2022/08/26 03:31:49;;;;;;;9.43;5.70;;;;;;;15.04;100.00;96399.38;5082639;28;20028;-66
2022/08/26 03:34:17;;;;;;;6.75;5.22;;;;;;;15.06;100.00;96399.75;5091012;28;20028;-68
2022/08/26 03:36:42;;;;;;;10.70;5.43;;;;;;;15.02;100.00;96397.00;5085250;28;20029;-68
2022/08/26 03:39:08;;;;;;;9.23;5.35;;;;;;;15.00;100.00;96401.34;5085934;28;20055;-67
2022/08/26 03:41:35;;;;;;;9.30;5.47;;;;;;;15.07;100.00;96396.59;5086366;28;20107;-67
2022/08/26 03:44:02;;;;;;;9.60;5.53;;;;;;;15.10;100.00;96403.25;5064954;28;20442;-68
2022/08/26 03:46:31;;;;;;;8.02;5.40;;;;;;;15.07;100.00;96393.84;5082064;28;20032;-66
2022/08/26 03:48:56;;;;;;;7.45;5.35;;;;;;;15.09;100.00;96388.69;5094568;28;20716;-67
2022/08/26 03:51:22;;;;;;;6.90;5.57;;;;;;;15.14;100.00;96390.22;5086680;28;20037;-68
2022/08/26 03:53:47;;;;;;;7.07;5.40;;;;;;;15.07;100.00;96395.78;5088704;28;20048;-66
2022/08/26 03:56:13;;;;;;;11.75;5.63;;;;;;;15.01;100.00;96389.13;5096456;28;20411;-67
2022/08/26 03:58:39;;;;;;;9.65;5.78;;;;;;;14.99;100.00;96392.28;5090954;28;20030;-66
2022/08/26 04:01:05;;;;;;;8.25;5.75;;;;;;;14.94;100.00;96394.69;5090966;28;20028;-67
2022/08/26 04:06:16;;;;;;;7.65;5.82;;;;;;;15.02;100.00;96393.47;5072644;28;20390;-67
2022/08/26 04:08:41;;;;;;;11.50;5.60;;;;;;;14.99;100.00;96395.06;5086803;28;20062;-67
2022/08/26 04:11:07;;;;;;;6.72;5.30;;;;;;;14.81;100.00;96394.38;5090451;28;20036;-68
2022/08/26 04:13:33;;;;;;;10.70;5.93;;;;;;;14.75;100.00;96396.78;5093830;28;20106;-68
2022/08/26 04:15:59;;;;;;;6.00;5.32;;;;;;;14.63;100.00;96392.47;5094042;28;20102;-68
2022/08/26 04:18:26;;;;;;;7.97;5.97;;;;;;;14.53;100.00;96390.53;5082629;28;20044;-68
2022/08/26 04:20:52;;;;;;;6.63;5.57;;;;;;;14.41;100.00;96397.28;5081338;28;20028;-67
2022/08/26 04:23:18;;;;;;;9.25;6.00;;;;;;;14.50;100.00;96397.63;5079785;28;20036;-66
2022/08/26 04:25:43;;;;;;;9.50;6.25;;;;;;;14.51;100.00;96396.44;5090162;28;20621;-65
2022/08/26 04:28:09;;;;;;;9.13;5.97;;;;;;;14.35;100.00;96393.38;5093876;28;20065;-67
2022/08/26 04:30:38;;;;;;;9.35;7.03;;;;;;;14.18;100.00;96394.97;5093851;28;20531;-67
2022/08/26 04:33:03;;;;;;;7.80;6.20;;;;;;;14.15;100.00;96398.50;5073796;28;20069;-66
2022/08/26 04:35:33;;;;;;;6.57;5.68;;;;;;;14.14;100.00;96400.50;5078668;28;20032;-68
2022/08/26 04:37:59;;;;;;;12.63;7.47;;;;;;;14.14;100.00;96399.72;5073569;28;20039;-68
2022/08/26 04:40:26;;;;;;;6.78;5.93;;;;;;;14.11;100.00;96401.28;5077062;28;20036;-67
2022/08/26 04:42:52;;;;;;;12.15;6.40;;;;;;;14.23;100.00;96399.31;5085288;28;20020;-66
2022/08/26 04:45:17;;;;;;;9.10;6.22;;;;;;;14.33;100.00;96396.53;5092785;28;20064;-66
2022/08/26 04:47:43;;;;;;;7.60;5.82;;;;;;;14.38;100.00;96395.31;5080347;28;20105;-67
2022/08/26 04:50:08;;;;;;;9.40;5.82;;;;;;;14.40;100.00;96398.44;5053601;28;20029;-66
2022/08/26 04:52:35;;;;;;;10.63;5.70;;;;;;;14.48;100.00;96404.72;5053444;28;20555;-65
2022/08/26 04:55:00;;;;;;;6.63;4.63;;;;;;;14.56;100.00;96397.22;5053539;28;20033;-65
2022/08/26 04:57:26;;;;;;;9.70;5.90;;;;;;;14.55;100.00;96393.69;5053855;28;20029;-65
2022/08/26 04:59:52;;;;;;;9.88;6.10;;;;;;;14.62;100.00;96398.38;5058640;28;20028;-66
2022/08/26 05:02:18;;;;;;;8.68;5.90;;;;;;;14.68;100.00;96400.34;5077042;28;20031;-66
2022/08/26 05:04:43;;;;;;;8.23;5.95;;;;;;;14.76;100.00;96400.31;5073031;28;20480;-65
2022/08/26 05:07:09;;;;;;;9.98;5.75;;;;;;;14.89;100.00;96402.22;5073461;28;20487;-66
2022/08/26 05:09:37;;;;;;;10.48;6.38;;;;;;;14.95;100.00;96399.81;5073931;28;20090;-66
2022/08/26 05:12:03;;;;;;;8.57;5.88;;;;;;;14.89;100.00;96399.44;5088554;28;20054;-66
2022/08/26 05:14:28;;;;;;;11.05;5.78;;;;;;;14.98;100.00;96399.00;5075937;28;20036;-66
2022/08/26 05:16:54;;;;;;;9.20;6.22;;;;;;;15.02;100.00;96396.22;5080960;28;20497;-67
2022/08/26 05:19:20;;;;;;;7.95;5.68;;;;;;;15.01;100.00;96400.16;5086642;28;20055;-67
2022/08/26 05:21:47;;;;;;;10.88;6.75;;;;;;;14.82;100.00;96412.47;5092931;28;20035;-66
2022/08/26 05:24:12;;;;;;;8.20;5.90;;;;;;;14.67;100.00;96409.78;5093310;28;20080;-67
2022/08/26 05:26:38;;;;;;;8.98;5.90;;;;;;;14.78;100.00;96417.22;5076808;28;20025;-67
2022/08/26 05:29:05;;;;;;;10.88;6.35;;;;;;;14.91;100.00;96416.38;5083268;28;20028;-67
2022/08/26 05:31:32;;;;;;;12.18;6.25;;;;;;;15.41;100.00;96418.06;5093030;28;20049;-65
2022/08/26 05:34:00;;;;;;;12.02;6.00;;;;;;;16.42;100.00;96423.47;5090058;28;20481;-64
2022/08/26 05:36:28;;;;;;;17.40;6.45;;;;;;;18.05;100.00;96414.47;5079064;28;20013;-63
2022/08/26 05:38:54;;;;;;;7.05;4.93;;;;;;;19.41;100.00;96418.47;5058379;28;20041;-65
2022/08/26 05:41:23;;;;;;;8.30;4.85;;;;;;;20.12;100.00;96418.78;5063728;28;20142;-65
2022/08/26 05:43:50;;;;;;;13.35;4.65;;;;;;;20.96;95.23;96424.47;5062556;28;20049;-65
2022/08/26 05:46:15;;;;;;;5.78;3.88;;;;;;;22.22;89.62;96426.09;5063968;28;20049;-65
2022/08/26 05:48:40;;;;;;;5.35;3.95;;;;;;;22.45;90.41;96436.06;5063902;28;20051;-66
2022/08/26 05:51:08;;;;;;;6.95;4.43;;;;;;;22.85;83.78;96429.88;5057440;28;20120;-66
2022/08/26 05:53:34;;;;;;;7.05;4.43;;;;;;;22.05;88.71;96436.63;5061969;28;20056;-66
2022/08/26 05:56:01;;;;;;;9.68;4.10;;;;;;;22.09;87.56;96431.72;5068214;28;20099;-64
2022/08/26 05:58:27;;;;;;;8.10;4.47;;;;;;;22.39;86.43;96428.75;5038985;28;20127;-64
2022/08/26 06:01:18;;;;;;;5.18;3.92;;;;;;;22.05;88.54;96439.41;5043319;28;20489;-64
2022/08/26 06:03:47;;;;;;;8.88;4.38;;;;;;;23.45;82.67;96430.88;5030950;28;20072;-64
2022/08/26 06:06:34;;;;;;;10.23;4.40;;;;;;;23.77;80.11;96434.38;5029797;28;20052;-64
2022/08/26 06:09:02;;;;;;;12.18;3.97;;;;;;;24.29;77.79;96429.88;5042870;28;20053;-64
2022/08/26 06:11:31;;;;;;;5.32;3.70;;;;;;;25.23;73.28;96440.56;5034763;28;20045;-64
2022/08/26 06:13:59;;;;;;;10.97;4.03;;;;;;;25.49;71.50;96438.16;5043268;28;20176;-65
2022/08/26 06:16:25;;;;;;;6.00;3.38;;;;;;;26.75;67.75;96448.84;5037647;28;20053;-64
2022/08/26 06:18:51;;;;;;;7.00;4.30;;;;;;;27.03;64.28;96449.38;5042992;28;20044;-65
2022/08/26 06:21:25;;;;;;;9.63;4.40;;;;;;;28.03;59.67;96447.97;5053458;28;20036;-65
2022/08/26 06:26:38;;;;;;;8.10;3.70;;;;;;;26.35;65.25;96457.72;5052101;28;20094;-64
2022/08/26 06:29:05;;;;;;;7.55;4.47;;;;;;;26.37;63.86;96458.78;5058851;28;20051;-64
2022/08/26 06:31:32;;;;;;;10.05;4.10;;;;;;;27.93;58.78;96452.97;5060716;28;20405;-65
2022/08/26 06:33:57;;;;;;;4.53;3.00;;;;;;;28.37;55.68;96457.66;5054619;28;20124;-64
2022/08/26 06:36:26;;;;;;;4.25;3.22;;;;;;;28.62;52.87;96463.13;5039917;28;20845;-65
2022/08/26 06:38:54;;;;;;;7.65;3.90;;;;;;;28.98;52.18;96461.72;5050753;28;20047;-65
2022/08/26 06:41:21;;;;;;;5.03;3.75;;;;;;;29.19;51.58;96468.13;5044997;28;20406;-64
2022/08/26 06:43:48;;;;;;;7.07;4.00;;;;;;;29.29;51.45;96460.25;5048438;28;20040;-64
2022/08/26 06:46:16;;;;;;;5.03;3.50;;;;;;;28.17;53.11;96475.31;5032047;28;20505;-64
2022/08/26 06:48:41;;;;;;;9.35;5.28;;;;;;;27.62;56.23;96478.78;5040975;28;20045;-65
2022/08/26 06:51:15;;;;;;;7.57;4.75;;;;;;;27.93;55.11;96469.84;5036025;28;20525;-64
2022/08/26 06:53:44;;;;;;;5.30;3.90;;;;;;;28.58;53.35;96474.59;5043483;28;20045;-66
2022/08/26 06:56:10;;;;;;;7.57;4.80;;;;;;;29.73;50.19;96476.03;5035123;28;20037;-64
2022/08/26 06:58:38;;;;;;;7.25;4.18;;;;;;;29.97;48.54;96472.91;5045786;28;20049;-64
2022/08/26 07:01:12;;;;;;;7.95;3.63;;;;;;;30.63;47.15;96468.16;5039705;28;20076;-65
2022/08/26 07:03:38;;;;;;;8.15;4.32;;;;;;;31.58;44.74;96469.69;5041384;28;20049;-65
2022/08/26 07:06:03;;;;;;;6.28;3.90;;;;;;;31.28;44.37;96471.44;5038102;28;20072;-66
2022/08/26 07:08:29;;;;;;;7.97;4.25;;;;;;;32.04;42.34;96475.38;5042183;28;20100;-64
2022/08/26 07:10:56;;;;;;;8.68;4.20;;;;;;;29.62;48.96;96471.09;5041370;28;20040;-64
2022/08/26 07:13:21;;;;;;;7.10;3.83;;;;;;;30.27;47.80;96469.72;5072565;28;20064;-64
2022/08/26 07:15:47;;;;;;;5.57;3.97;;;;;;;30.94;45.84;96468.56;5082969;28;20043;-64
2022/08/26 07:18:13;;;;;;;6.50;4.20;;;;;;;29.80;46.61;96469.19;5071516;28;20034;-64
2022/08/26 07:20:39;;;;;;;5.63;4.32;;;;;;;27.90;52.77;96476.44;5077738;28;20040;-64
2022/08/26 07:23:08;;;;;;;8.27;4.45;;;;;;;28.38;51.54;96476.09;5080243;28;20039;-65
2022/08/26 07:25:38;;;;;;;7.25;4.75;;;;;;;27.68;53.78;96479.66;5082309;28;20040;-65
2022/08/26 07:28:04;;;;;;;10.23;3.58;;;;;;;28.86;50.13;96479.78;5079355;28;20036;-66
2022/08/26 07:30:30;;;;;;;8.25;4.13;;;;;;;29.50;47.90;96475.09;5075799;28;20040;-64
2022/08/26 07:32:57;;;;;;;5.13;4.35;;;;;;;27.33;54.26;96482.38;5074321;28;20072;-64
2022/08/26 07:35:24;;;;;;;6.25;5.00;;;;;;;27.06;54.54;96475.75;5078651;28;20047;-65
2022/08/26 07:37:50;;;;;;;9.57;4.53;;;;;;;25.78;58.69;96476.06;5079991;28;20040;-65
2022/08/26 07:40:16;;;;;;;5.90;4.43;;;;;;;27.08;56.99;96470.41;5072863;28;20516;-65
2022/08/26 07:42:41;;;;;;;13.05;9.27;;;;;;;27.32;56.50;96461.94;5061640;28;20044;-65
2022/08/26 07:45:07;;;;;;;8.75;5.47;;;;;;;27.57;56.39;96469.00;5055631;28;20045;-65
2022/08/26 07:47:32;;;;;;;7.00;4.70;;;;;;;27.85;54.66;96461.00;5064442;28;20040;-65
2022/08/26 07:49:58;;;;;;;6.38;5.00;;;;;;;25.68;61.59;96461.31;5066337;28;20041;-65
2022/08/26 07:52:26;;;;;;;8.63;5.47;;;;;;;26.74;58.71;96469.78;5049771;28;20522;-65
2022/08/26 07:54:51;;;;;;;12.20;5.13;;;;;;;26.89;59.14;96476.19;5067224;28;20064;-64
2022/08/26 07:57:16;;;;;;;9.38;5.10;;;;;;;29.43;51.88;96481.16;5081482;28;20098;-65
2022/08/26 07:59:42;;;;;;;7.72;4.88;;;;;;;30.74;47.55;96477.94;5055391;28;20052;-65
2022/08/26 08:02:07;;;;;;;11.98;5.40;;;;;;;31.68;43.71;96483.59;5042560;28;20045;-64
2022/08/26 08:04:33;;;;;;;5.43;4.30;;;;;;;32.47;41.04;96483.53;5045133;28;20191;-65
2022/08/26 08:06:58;;;;;;;8.48;5.18;;;;;;;31.10;43.95;96475.50;5044807;28;20037;-64
2022/08/26 08:09:24;;;;;;;6.63;4.65;;;;;;;30.99;43.31;96477.06;5036564;28;20331;-65
2022/08/26 08:11:50;;;;;;;5.40;4.75;;;;;;;28.92;49.36;96478.59;5043470;28;20409;-65
2022/08/26 08:14:17;;;;;;;5.50;4.22;;;;;;;29.26;49.79;96473.31;5038664;28;20048;-69
2022/08/26 08:16:42;;;;;;;7.50;4.63;;;;;;;30.76;44.33;96470.50;5042710;28;20041;-65
2022/08/26 08:19:08;;;;;;;8.27;4.22;;;;;;;32.29;42.84;96474.28;5039478;28;20079;-65
2022/08/26 08:21:33;;;;;;;9.27;4.30;;;;;;;33.00;39.73;96484.34;5040010;28;20037;-64
2022/08/26 08:23:59;;;;;;;9.95;4.28;;;;;;;33.49;38.78;96475.28;5043058;28;20051;-64
2022/08/26 08:26:25;;;;;;;7.85;4.28;;;;;;;31.38;43.08;96475.56;5039075;28;20144;-64
2022/08/26 08:28:55;;;;;;;11.38;4.72;;;;;;;33.48;39.35;96480.22;5043710;28;20306;-65
2022/08/26 08:31:29;;;;;;;7.55;4.10;;;;;;;34.55;36.99;96483.41;5039187;28;20033;-64
2022/08/26 08:33:55;;;;;;;6.18;3.42;;;;;;;34.12;38.31;96484.09;5026425;28;20494;-65
2022/08/26 08:36:21;;;;;;;8.65;3.88;;;;;;;32.74;41.27;96479.84;5018977;28;20052;-64
2022/08/26 08:38:47;;;;;;;8.98;4.40;;;;;;;31.38;43.70;96475.56;5026466;28;20044;-64
2022/08/26 08:41:43;;;;;;;7.18;4.03;;;;;;;32.52;41.90;96482.72;5024594;28;20052;-65
2022/08/26 08:44:18;;;;;;;6.47;4.35;;;;;;;30.74;45.93;96466.63;5039586;28;20506;-66
2022/08/26 08:46:48;;;;;;;5.63;3.58;;;;;;;31.54;44.37;96474.06;5035747;28;20446;-63
2022/08/26 08:49:14;;;;;;;7.82;4.57;;;;;;;33.20;40.12;96474.72;5038969;28;20092;-64
2022/08/26 08:51:53;;;;;;;6.30;3.45;;;;;;;33.89;38.53;96464.44;5042638;28;20076;-64
2022/08/26 08:54:19;;;;;;;7.43;3.72;;;;;;;33.62;39.51;96464.09;5038334;28;20524;-65
2022/08/26 08:57:00;;;;;;;5.95;3.60;;;;;;;32.79;41.71;96464.09;5056339;28;20485;-64
2022/08/26 08:59:31;;;;;;;5.22;3.60;;;;;;;31.72;43.17;96469.97;5054034;28;20045;-66
2022/08/26 09:02:04;;;;;;;6.53;3.03;;;;;;;33.52;39.79;96460.06;5044597;28;20037;-64
2022/08/26 09:04:50;;;;;;;12.57;3.30;;;;;;;32.27;43.38;96459.88;5062786;28;20058;-65
2022/08/26 09:07:24;;;;;;;4.97;4.05;;;;;;;28.83;52.74;96449.75;5078043;28;20048;-64
2022/08/26 09:10:22;;;;;;;8.57;3.90;;;;;;;30.04;49.10;96449.09;5099722;28;20401;-64
2022/08/26 09:12:49;;;;;;;6.72;4.03;;;;;;;32.65;43.71;96445.34;5058655;28;20067;-64
2022/08/26 09:15:23;;;;;;;6.63;3.72;;;;;;;32.92;42.51;96458.59;5034644;28;20045;-65
2022/08/26 09:18:03;;;;;;;11.60;3.63;;;;;;;31.99;43.34;96446.50;5034799;28;20045;-65
2022/08/26 09:20:36;;;;;;;5.20;3.10;;;;;;;33.99;39.79;96444.97;5075769;28;20066;-64
2022/08/26 09:23:01;;;;;;;8.52;3.53;;;;;;;32.45;41.84;96444.38;5085170;28;20403;-64
2022/08/26 09:25:26;;;;;;;14.00;3.35;;;;;;;33.30;41.71;96443.97;5069291;28;20052;-65
2022/08/26 09:27:52;;;;;;;5.35;3.40;;;;;;;31.44;45.33;96442.41;5046413;28;20048;-65
2022/08/26 09:30:26;;;;;;;6.53;3.85;;;;;;;33.62;40.84;96444.25;5037711;28;20128;-65
2022/08/26 09:33:03;;;;;;;6.65;3.85;;;;;;;34.03;41.15;96440.53;5046182;28;20075;-66
2022/08/26 09:35:34;;;;;;;5.25;3.55;;;;;;;33.71;41.02;96438.25;5054690;28;20068;-64
2022/08/26 09:38:00;;;;;;;8.23;4.13;;;;;;;32.34;44.46;96450.03;5048636;28;20902;-64
2022/08/26 09:40:32;;;;;;;8.15;3.92;;;;;;;31.54;45.46;96442.94;5038635;28;20080;-64
2022/08/26 09:43:14;;;;;;;7.55;4.53;;;;;;;31.39;47.04;96441.09;5043261;28;20078;-64
2022/08/26 09:45:44;;;;;;;10.13;5.47;;;;;;;30.65;50.18;96434.50;5061628;28;20178;-64
2022/08/26 09:48:09;;;;;;;6.72;5.10;;;;;;;29.44;55.37;96426.28;5046512;28;20043;-65
2022/08/26 09:50:39;;;;;;;15.55;6.40;;;;;;;30.64;51.23;96432.19;5075757;28;20088;-64
2022/08/26 09:53:15;;;;;;;9.55;4.55;;;;;;;30.77;51.09;96426.81;5078260;28;20040;-66
2022/08/26 09:55:44;;;;;;;14.65;7.47;;;;;;;30.46;52.08;96427.75;5082870;28;20048;-64
2022/08/26 09:58:33;;;;;;;11.68;6.75;;;;;;;30.26;53.81;96412.47;5068429;28;20085;-65
2022/08/26 10:01:02;;;;;;;11.82;5.93;;;;;;;30.51;51.99;96412.88;5046985;28;20036;-64
2022/08/26 10:03:31;;;;;;;9.43;5.22;;;;;;;30.38;53.08;96409.72;5050454;28;20136;-65
2022/08/26 10:06:03;;;;;;;14.75;8.15;;;;;;;29.34;55.06;96412.38;5067560;28;20056;-64
2022/08/26 10:08:33;;;;;;;35.47;31.08;;;;;;;29.05;56.30;96404.91;5062436;28;20097;-66
2022/08/26 10:11:03;;;;;;;11.30;7.10;;;;;;;29.68;55.54;96411.88;5081543;28;20041;-65
2022/08/26 10:13:41;;;;;;;12.98;6.03;;;;;;;30.27;51.02;96399.13;5054148;28;20049;-65
2022/08/26 10:16:28;;;;;;;11.32;5.43;;;;;;;30.70;50.08;96399.03;5037772;28;20486;-65
2022/08/26 10:19:13;;;;;;;7.70;4.82;;;;;;;31.32;49.44;96398.41;5039616;28;20045;-65
2022/08/26 10:21:51;;;;;;;8.13;5.10;;;;;;;31.90;48.70;96392.19;5074854;28;20044;-65
2022/08/26 10:24:30;;;;;;;6.55;4.30;;;;;;;31.10;46.52;96388.63;5051951;28;20040;-64
2022/08/26 10:27:04;;;;;;;8.45;4.53;;;;;;;31.33;46.45;96392.25;5042046;28;20073;-64
2022/08/26 10:29:44;;;;;;;7.28;4.20;;;;;;;31.75;43.83;96384.00;5053649;28;20395;-64
2022/08/26 10:32:34;;;;;;;11.65;4.45;;;;;;;31.60;45.59;96373.72;5056392;28;20045;-64
2022/08/26 10:35:00;;;;;;;9.00;5.15;;;;;;;32.65;42.35;96378.06;5067419;28;20043;-64
2022/08/26 10:37:35;;;;;;;10.30;4.47;;;;;;;32.68;41.75;96370.56;5037322;28;20041;-64
2022/08/26 10:40:12;;;;;;;8.05;4.43;;;;;;;32.92;40.67;96373.53;5040105;28;20041;-64
2022/08/26 10:42:49;;;;;;;18.33;8.43;;;;;;;33.04;43.63;96368.53;5061901;28;20043;-65
2022/08/26 10:45:18;;;;;;;6.22;4.43;;;;;;;31.39;44.81;96367.53;5057020;28;20489;-64
2022/08/26 10:48:05;;;;;;;6.53;4.25;;;;;;;30.65;45.17;96363.09;5055034;28;20072;-64
2022/08/26 10:50:36;;;;;;;5.75;4.32;;;;;;;29.93;48.33;96367.91;5053772;28;20128;-66
2022/08/26 10:53:35;;;;;;;10.07;5.00;;;;;;;29.65;53.43;96360.00;5041593;28;20072;-65
2022/08/26 10:56:22;;;;;;;13.93;7.55;;;;;;;30.59;52.01;96354.56;5040453;28;20041;-66
2022/08/26 10:59:11;;;;;;;8.38;5.50;;;;;;;30.28;53.70;96355.47;5047374;28;20094;-66
2022/08/26 11:01:57;;;;;;;8.93;5.65;;;;;;;30.62;52.91;96342.25;5043168;28;20516;-64
2022/08/26 11:04:43;;;;;;;8.93;4.72;;;;;;;30.29;54.00;96338.03;5033345;28;20685;-64
2022/08/26 11:07:31;;;;;;;12.00;6.53;;;;;;;30.17;53.30;96339.25;5016567;28;20048;-64
2022/08/26 11:09:58;;;;;;;9.35;5.05;;;;;;;30.18;54.42;96329.53;5021999;28;20483;-64
2022/08/26 11:12:35;;;;;;;9.55;6.43;;;;;;;29.91;53.73;96339.41;5030715;28;20060;-64
2022/08/26 11:15:07;;;;;;;12.65;6.45;;;;;;;29.36;55.67;96336.47;5041910;28;20037;-64
2022/08/26 11:17:44;;;;;;;7.35;5.32;;;;;;;29.42;53.26;96328.06;5060374;28;20044;-66
2022/08/26 11:20:22;;;;;;;16.77;8.07;;;;;;;28.91;57.35;96329.69;5057404;28;20047;-65
2022/08/26 11:22:52;;;;;;;7.18;4.72;;;;;;;29.19;56.21;96321.50;5065864;28;20509;-65
2022/08/26 11:25:23;;;;;;;9.32;5.80;;;;;;;29.40;56.27;96316.50;5057688;28;20464;-65
2022/08/26 11:27:49;;;;;;;8.60;5.30;;;;;;;29.13;56.51;96315.75;5054021;28;20041;-65
2022/08/26 11:30:14;;;;;;;12.38;6.15;;;;;;;29.33;55.40;96314.94;5038852;28;20095;-65
2022/08/26 11:32:40;;;;;;;10.90;5.82;;;;;;;28.97;55.95;96314.38;5045251;28;20560;-65
2022/08/26 11:35:30;;;;;;;7.03;4.68;;;;;;;29.44;52.97;96311.41;5040727;28;20128;-64
2022/08/26 11:38:01;;;;;;;10.13;4.60;;;;;;;29.77;50.69;96309.31;5038504;28;20050;-66
2022/08/26 11:40:32;;;;;;;6.93;3.70;;;;;;;30.27;46.25;96306.69;5062105;28;20059;-65
2022/08/26 11:43:05;;;;;;;10.45;5.97;;;;;;;30.42;51.30;96303.69;5046253;28;20041;-65
2022/08/26 11:45:41;;;;;;;14.20;7.22;;;;;;;30.04;52.37;96305.84;5060123;28;20343;-64